createdAt,value
2022-12-29T00:01:46.990Z,8.10
2022-12-29T00:04:51.973Z,8.10
2022-12-29T00:07:54.884Z,8.10
2022-12-29T00:10:57.824Z,8.20
2022-12-29T00:14:24.202Z,8.20
2022-12-29T00:17:30.192Z,8.20
2022-12-29T00:20:54.588Z,8.40
2022-12-29T00:24:23.096Z,8.20
2022-12-29T00:27:43.605Z,8.20
2022-12-29T00:31:04.224Z,8.40
2022-12-29T00:34:30.055Z,8.30
2022-12-29T00:37:46.890Z,8.30
2022-12-29T00:41:07.437Z,8.30
2022-12-29T00:44:11.506Z,8.30
2022-12-29T00:47:14.457Z,8.40
2022-12-29T00:50:17.908Z,8.40
2022-12-29T00:53:21.096Z,8.40
2022-12-29T00:56:24.092Z,8.40
2022-12-29T00:59:27.072Z,8.40
2022-12-29T01:02:30.944Z,8.40
2022-12-29T01:05:38.198Z,8.40
2022-12-29T01:08:41.169Z,8.30
2022-12-29T01:11:43.173Z,8.40
2022-12-29T01:14:46.112Z,8.40
2022-12-29T01:17:50.260Z,8.30
2022-12-29T01:21:01.008Z,8.30
2022-12-29T01:24:04.133Z,8.30
2022-12-29T01:27:07.057Z,8.30
2022-12-29T01:30:11.375Z,8.30
2022-12-29T01:33:14.350Z,8.30
2022-12-29T01:36:19.870Z,8.40
2022-12-29T01:39:23.041Z,8.30
2022-12-29T01:42:27.932Z,8.40
2022-12-29T01:45:31.008Z,8.40
2022-12-29T01:48:33.997Z,8.30
2022-12-29T01:51:42.959Z,8.30
2022-12-29T01:54:52.903Z,8.30
2022-12-29T01:58:00.339Z,8.30
2022-12-29T02:01:03.801Z,8.30
2022-12-29T02:04:07.103Z,8.30
2022-12-29T02:07:17.892Z,8.20
2022-12-29T02:10:22.462Z,8.20
2022-12-29T02:13:26.279Z,8.30
2022-12-29T02:16:38.502Z,8.20
2022-12-29T02:20:06.212Z,8.20
2022-12-29T02:23:29.287Z,8.10
2022-12-29T02:26:46.207Z,8.10
2022-12-29T02:30:06.741Z,8.10
2022-12-29T02:33:21.850Z,8.20
2022-12-29T02:36:32.105Z,8.20
2022-12-29T02:39:40.085Z,8.20
2022-12-29T02:42:50.679Z,8.20
2022-12-29T02:45:59.018Z,8.30
2022-12-29T02:49:10.206Z,8.30
2022-12-29T02:52:18.953Z,8.40
2022-12-29T02:55:21.032Z,8.40
2022-12-29T02:58:25.550Z,8.40
2022-12-29T03:02:03.780Z,8.60
2022-12-29T03:05:33.973Z,8.60
2022-12-29T03:08:45.985Z,8.70
2022-12-29T03:12:16.853Z,8.80
2022-12-29T03:15:43.767Z,8.80
2022-12-29T03:18:55.414Z,8.90
2022-12-29T03:22:21.529Z,9.00
2022-12-29T03:25:28.103Z,9.10
2022-12-29T03:28:36.023Z,9.10
2022-12-29T03:31:40.475Z,9.10
2022-12-29T03:34:44.209Z,9.20
2022-12-29T03:37:55.002Z,9.20
2022-12-29T03:41:00.244Z,9.20
2022-12-29T03:44:03.361Z,9.20
2022-12-29T03:47:07.606Z,9.20
2022-12-29T03:50:10.803Z,9.20
2022-12-29T03:53:15.097Z,9.20
2022-12-29T03:56:18.169Z,9.20
2022-12-29T03:59:21.259Z,9.20
2022-12-29T04:02:24.805Z,9.20
2022-12-29T04:05:28.036Z,9.20
2022-12-29T04:08:32.341Z,9.30
2022-12-29T04:11:35.334Z,9.30
2022-12-29T04:14:38.231Z,9.30
2022-12-29T04:17:41.247Z,9.40
2022-12-29T04:21:03.457Z,9.40
2022-12-29T04:24:08.398Z,9.40
2022-12-29T04:27:11.379Z,9.50
2022-12-29T04:30:14.572Z,9.50
2022-12-29T04:33:19.224Z,9.50
2022-12-29T04:36:27.841Z,9.50
2022-12-29T04:39:35.252Z,9.60
2022-12-29T04:42:38.259Z,9.50
2022-12-29T04:45:41.557Z,9.50
2022-12-29T04:48:44.506Z,9.60
2022-12-29T04:51:47.431Z,9.60
2022-12-29T04:54:51.691Z,9.60
2022-12-29T04:57:54.695Z,9.60
2022-12-29T05:00:57.574Z,9.60
2022-12-29T05:04:00.537Z,9.60
2022-12-29T05:07:03.696Z,9.60
2022-12-29T05:10:09.382Z,9.60
2022-12-29T05:13:12.336Z,9.70
2022-12-29T05:16:15.339Z,9.60
2022-12-29T05:19:18.681Z,9.70
2022-12-29T05:22:21.666Z,9.70
2022-12-29T05:25:25.950Z,9.70
2022-12-29T05:28:28.900Z,9.80
2022-12-29T05:31:31.885Z,9.90
2022-12-29T05:34:34.949Z,9.90
2022-12-29T05:37:37.981Z,9.90
2022-12-29T05:40:42.347Z,9.90
2022-12-29T05:43:45.320Z,10.00
2022-12-29T05:46:48.322Z,10.00
2022-12-29T05:49:51.287Z,10.00
2022-12-29T05:52:54.267Z,10.00
2022-12-29T05:55:58.537Z,10.00
2022-12-29T05:59:01.607Z,10.00
2022-12-29T06:02:04.785Z,10.10
2022-12-29T06:05:08.399Z,10.20
2022-12-29T06:08:11.358Z,10.20
2022-12-29T06:11:15.760Z,10.30
2022-12-29T06:14:18.732Z,10.40
2022-12-29T06:17:21.652Z,10.40
2022-12-29T06:20:24.850Z,10.40
2022-12-29T06:23:27.733Z,10.40
2022-12-29T06:26:32.037Z,10.40
2022-12-29T06:29:37.210Z,10.50
2022-12-29T06:32:41.128Z,10.40
2022-12-29T06:35:44.821Z,10.50
2022-12-29T06:38:47.747Z,10.50
2022-12-29T06:41:54.683Z,10.60
2022-12-29T06:44:59.471Z,10.60
2022-12-29T06:48:02.645Z,10.60
2022-12-29T06:51:05.870Z,10.60
2022-12-29T06:54:08.992Z,10.60
2022-12-29T06:57:13.320Z,10.60
2022-12-29T07:00:22.487Z,10.60
2022-12-29T07:03:26.373Z,10.60
2022-12-29T07:06:29.359Z,10.60
2022-12-29T07:09:32.323Z,10.60
2022-12-29T07:12:37.747Z,10.60
2022-12-29T07:15:40.752Z,10.60
2022-12-29T07:18:44.643Z,10.60
2022-12-29T07:21:47.576Z,10.60
2022-12-29T07:24:50.547Z,10.60
2022-12-29T07:27:55.632Z,10.60
2022-12-29T07:30:58.592Z,10.60
2022-12-29T07:34:01.553Z,10.60
2022-12-29T07:37:04.546Z,10.60
2022-12-29T07:40:08.910Z,10.50
2022-12-29T07:43:13.181Z,10.50
2022-12-29T07:46:55.598Z,10.50
2022-12-29T07:49:39.073Z,10.50
2022-12-29T07:52:42.180Z,10.50
2022-12-29T07:55:45.140Z,10.50
2022-12-29T07:58:49.386Z,10.50
2022-12-29T08:01:52.517Z,10.50
2022-12-29T08:04:55.542Z,10.50
2022-12-29T08:07:58.885Z,10.60
2022-12-29T08:11:01.897Z,10.60
2022-12-29T08:14:06.342Z,10.70
2022-12-29T08:17:09.368Z,10.70
2022-12-29T08:20:12.940Z,10.70
2022-12-29T08:23:15.913Z,10.70
2022-12-29T08:26:18.888Z,10.70
2022-12-29T08:29:23.348Z,10.70
2022-12-29T08:32:27.697Z,10.80
2022-12-29T08:35:30.666Z,10.80
2022-12-29T08:38:34.046Z,10.70
2022-12-29T08:41:36.974Z,10.70
2022-12-29T08:44:41.297Z,10.70
2022-12-29T08:47:44.233Z,10.70
2022-12-29T08:50:47.785Z,10.80
2022-12-29T08:53:51.529Z,10.80
2022-12-29T08:56:54.791Z,10.70
2022-12-29T08:59:59.080Z,10.80
2022-12-29T09:03:02.254Z,10.90
2022-12-29T09:06:05.520Z,10.90
2022-12-29T09:09:08.576Z,11.00
2022-12-29T09:12:11.522Z,11.00
2022-12-29T09:15:16.525Z,11.10
2022-12-29T09:18:21.710Z,11.00
2022-12-29T09:21:24.671Z,11.00
2022-12-29T09:24:27.613Z,11.10
2022-12-29T09:27:30.974Z,11.20
2022-12-29T09:30:35.305Z,11.30
2022-12-29T09:33:38.761Z,11.40
2022-12-29T09:36:41.765Z,11.50
2022-12-29T09:39:50.518Z,11.50
2022-12-29T09:43:45.213Z,11.40
2022-12-29T09:46:52.385Z,11.40
2022-12-29T09:49:58.222Z,11.30
2022-12-29T09:53:07.003Z,11.40
2022-12-29T09:56:17.235Z,11.40
2022-12-29T09:59:23.062Z,11.50
2022-12-29T10:02:39.904Z,11.60
2022-12-29T10:05:52.186Z,11.70
2022-12-29T10:09:03.783Z,11.80
2022-12-29T10:12:20.128Z,11.80
2022-12-29T10:15:36.166Z,11.70
2022-12-29T10:19:08.688Z,11.70
2022-12-29T10:22:23.214Z,11.80
2022-12-29T10:25:32.853Z,11.80
2022-12-29T10:28:39.497Z,11.90
2022-12-29T10:31:46.092Z,12.10
2022-12-29T10:34:55.040Z,12.30
2022-12-29T10:38:03.681Z,12.40
2022-12-29T10:41:15.908Z,12.60
2022-12-29T10:44:20.708Z,12.70
2022-12-29T10:47:27.201Z,12.80
2022-12-29T10:50:31.785Z,12.80
2022-12-29T10:53:40.427Z,12.80
2022-12-29T10:56:45.975Z,12.90
2022-12-29T10:59:48.920Z,12.80
2022-12-29T11:03:12.416Z,12.70
2022-12-29T11:06:24.372Z,12.70
2022-12-29T11:09:42.026Z,12.70
2022-12-29T11:12:58.442Z,12.70
2022-12-29T11:16:03.815Z,12.80
2022-12-29T11:19:07.202Z,12.70
2022-12-29T11:22:22.850Z,12.60
2022-12-29T11:25:25.758Z,12.60
2022-12-29T11:28:31.534Z,12.60
2022-12-29T11:31:42.602Z,12.50
2022-12-29T11:34:45.600Z,12.60
2022-12-29T11:37:59.454Z,12.50
2022-12-29T11:41:03.403Z,12.50
2022-12-29T11:44:08.163Z,12.50
2022-12-29T11:47:21.719Z,12.40
2022-12-29T11:50:28.133Z,12.30
2022-12-29T11:53:40.916Z,12.20
2022-12-29T11:56:45.538Z,12.10
2022-12-29T11:59:53.054Z,12.10
2022-12-29T12:03:00.767Z,12.00
2022-12-29T12:06:05.070Z,11.90
2022-12-29T12:09:16.790Z,11.80
2022-12-29T12:12:26.587Z,11.70
2022-12-29T12:15:33.622Z,11.60
2022-12-29T12:18:43.917Z,11.50
2022-12-29T12:21:52.481Z,11.30
2022-12-29T12:25:01.270Z,11.10
2022-12-29T12:28:11.528Z,11.00
2022-12-29T12:31:28.703Z,10.90
2022-12-29T12:34:39.032Z,10.90
2022-12-29T12:38:08.462Z,10.80
2022-12-29T12:41:21.341Z,10.80
2022-12-29T12:44:31.247Z,10.80
2022-12-29T12:47:53.096Z,10.70
2022-12-29T12:51:03.979Z,10.70
2022-12-29T12:54:26.289Z,10.70
2022-12-29T12:57:42.538Z,10.70
2022-12-29T13:00:59.123Z,10.70
2022-12-29T13:04:19.770Z,10.70
2022-12-29T13:07:33.348Z,10.60
2022-12-29T13:10:49.870Z,10.60
2022-12-29T13:14:23.192Z,10.60
2022-12-29T13:17:32.323Z,10.50
2022-12-29T13:20:44.451Z,10.60
2022-12-29T13:23:54.629Z,10.60
2022-12-29T13:27:04.839Z,10.70
2022-12-29T13:30:13.560Z,10.70
2022-12-29T13:33:24.607Z,10.70
2022-12-29T13:36:32.501Z,10.70
2022-12-29T13:39:38.349Z,10.70
2022-12-29T13:42:42.722Z,10.70
2022-12-29T13:45:52.631Z,10.70
2022-12-29T13:48:58.837Z,10.70
2022-12-29T13:52:11.441Z,10.70
2022-12-29T13:55:26.946Z,10.70
2022-12-29T13:58:36.077Z,10.80
2022-12-29T14:01:48.192Z,10.80
2022-12-29T14:05:00.395Z,10.80
2022-12-29T14:08:06.178Z,10.80
2022-12-29T14:11:11.811Z,10.80
2022-12-29T14:14:21.688Z,10.70
2022-12-29T14:17:26.046Z,10.80
2022-12-29T14:20:29.310Z,10.70
2022-12-29T14:23:40.762Z,10.70
2022-12-29T14:26:43.756Z,10.60
2022-12-29T14:29:47.445Z,10.60
2022-12-29T14:33:09.875Z,10.60
2022-12-29T14:36:34.842Z,10.50
2022-12-29T14:39:40.754Z,10.60
2022-12-29T14:42:44.403Z,10.50
2022-12-29T14:45:56.375Z,10.50
2022-12-29T14:49:02.217Z,10.50
2022-12-29T14:52:16.884Z,10.50
2022-12-29T14:55:40.323Z,10.50
2022-12-29T14:58:52.039Z,10.50
2022-12-29T15:01:58.503Z,10.60
2022-12-29T15:05:05.248Z,10.50
2022-12-29T15:08:09.435Z,10.50
2022-12-29T15:11:15.988Z,10.60
2022-12-29T15:14:34.530Z,10.50
2022-12-29T15:17:39.533Z,10.50
2022-12-29T15:20:44.866Z,10.50
2022-12-29T15:23:48.933Z,10.60
2022-12-29T15:26:53.882Z,10.50
2022-12-29T15:30:02.691Z,10.50
2022-12-29T15:33:20.705Z,10.50
2022-12-29T15:36:27.321Z,10.40
2022-12-29T15:39:31.995Z,10.30
2022-12-29T15:42:51.015Z,10.20
2022-12-29T15:45:56.039Z,10.10
2022-12-29T15:48:59.305Z,10.00
2022-12-29T15:52:08.667Z,9.90
2022-12-29T15:55:22.033Z,9.90
2022-12-29T15:58:27.632Z,9.90
2022-12-29T16:01:33.602Z,9.90
2022-12-29T16:04:54.336Z,9.80
2022-12-29T16:08:02.071Z,9.80
2022-12-29T16:11:10.000Z,9.80
2022-12-29T16:14:18.484Z,9.80
2022-12-29T16:17:24.716Z,9.80
2022-12-29T16:20:36.665Z,9.90
2022-12-29T16:23:41.198Z,9.90
2022-12-29T16:26:49.767Z,10.00
2022-12-29T16:29:56.417Z,9.90
2022-12-29T16:33:01.819Z,9.90
2022-12-29T16:36:23.178Z,10.00
2022-12-29T16:39:34.525Z,10.00
2022-12-29T16:42:51.385Z,9.90
2022-12-29T16:46:21.564Z,9.90
2022-12-29T16:49:24.633Z,9.90
2022-12-29T16:52:32.941Z,10.00
2022-12-29T16:55:37.305Z,9.90
2022-12-29T16:58:43.494Z,10.00
2022-12-29T17:01:48.510Z,9.90
2022-12-29T17:04:52.360Z,10.00
2022-12-29T17:08:01.672Z,10.00
2022-12-29T17:11:23.934Z,10.00
2022-12-29T17:14:46.184Z,10.00
2022-12-29T17:17:50.967Z,9.90
2022-12-29T17:20:53.929Z,10.00
2022-12-29T17:23:57.991Z,10.00
2022-12-29T17:27:02.269Z,10.00
2022-12-29T17:30:11.450Z,10.00
2022-12-29T17:33:17.970Z,10.00
2022-12-29T17:36:21.019Z,10.20
2022-12-29T17:39:23.961Z,10.20
2022-12-29T17:42:28.503Z,10.20
2022-12-29T17:45:33.146Z,10.30
2022-12-29T17:48:36.560Z,10.30
2022-12-29T17:51:39.563Z,10.40
2022-12-29T17:54:47.035Z,10.50
2022-12-29T17:57:51.860Z,10.50
2022-12-29T18:00:57.248Z,10.50
2022-12-29T18:04:00.283Z,10.50
2022-12-29T18:07:06.936Z,10.40
2022-12-29T18:10:10.408Z,10.40
2022-12-29T18:13:22.331Z,10.40
2022-12-29T18:16:25.299Z,10.40
2022-12-29T18:19:32.485Z,10.40
2022-12-29T18:22:38.915Z,10.30
2022-12-29T18:25:46.039Z,10.30
2022-12-29T18:28:51.019Z,10.20
2022-12-29T18:31:54.050Z,10.20
2022-12-29T18:34:57.044Z,10.20
2022-12-29T18:38:00.005Z,10.10
2022-12-29T18:41:03.061Z,10.10
2022-12-29T18:44:12.794Z,10.00
2022-12-29T18:47:15.775Z,9.90
2022-12-29T18:50:19.265Z,9.90
2022-12-29T18:53:23.948Z,9.90
2022-12-29T18:56:27.176Z,9.80
2022-12-29T18:59:31.587Z,9.80
2022-12-29T19:02:34.544Z,9.80
2022-12-29T19:05:39.342Z,9.80
2022-12-29T19:08:42.361Z,9.80
2022-12-29T19:11:45.637Z,9.80
2022-12-29T19:14:49.841Z,9.80
2022-12-29T19:18:24.041Z,9.70
2022-12-29T19:21:16.780Z,9.70
2022-12-29T19:24:19.752Z,9.60
2022-12-29T19:27:23.399Z,9.60
2022-12-29T19:30:28.698Z,9.50
2022-12-29T19:33:31.615Z,9.40
2022-12-29T19:36:34.677Z,9.40
2022-12-29T19:39:37.586Z,9.40
2022-12-29T19:42:40.642Z,9.40
2022-12-29T19:45:45.910Z,9.40
2022-12-29T19:48:48.885Z,9.30
2022-12-29T19:51:52.818Z,9.40
2022-12-29T19:54:56.310Z,9.40
2022-12-29T19:57:59.243Z,9.30
2022-12-29T20:01:07.757Z,9.30
2022-12-29T20:04:10.699Z,9.40
2022-12-29T20:07:17.544Z,9.50
2022-12-29T20:10:20.886Z,9.50
2022-12-29T20:13:23.842Z,9.50
2022-12-29T20:16:29.666Z,9.50
2022-12-29T20:19:32.751Z,9.50
2022-12-29T20:22:35.953Z,9.50
2022-12-29T20:25:47.385Z,9.50
2022-12-29T20:28:51.246Z,9.50
2022-12-29T20:31:55.651Z,9.50
2022-12-29T20:34:58.660Z,9.50
2022-12-29T20:38:01.812Z,9.50
2022-12-29T20:41:05.255Z,9.60
2022-12-29T20:44:08.240Z,9.60
2022-12-29T20:47:12.601Z,9.60
2022-12-29T20:50:15.556Z,9.60
2022-12-29T20:53:18.487Z,9.70
2022-12-29T20:56:23.920Z,9.80
2022-12-29T20:59:28.493Z,9.90
2022-12-29T21:02:33.419Z,9.80
2022-12-29T21:05:38.060Z,9.80
2022-12-29T21:08:41.293Z,9.80
2022-12-29T21:11:44.246Z,9.80
2022-12-29T21:14:47.201Z,9.90
2022-12-29T21:17:51.537Z,9.90
2022-12-29T21:20:58.399Z,9.90
2022-12-29T21:24:05.273Z,9.80
2022-12-29T21:27:08.472Z,9.80
2022-12-29T21:30:12.893Z,9.80
2022-12-29T21:33:17.613Z,9.80
2022-12-29T21:36:20.927Z,9.70
2022-12-29T21:39:23.880Z,9.70
2022-12-29T21:42:27.598Z,9.70
2022-12-29T21:45:34.030Z,9.70
2022-12-29T21:48:38.395Z,9.70
2022-12-29T21:51:54.010Z,9.70
2022-12-29T21:55:04.851Z,9.60
2022-12-29T21:58:26.612Z,9.60
2022-12-29T22:01:49.641Z,9.50
2022-12-29T22:05:11.756Z,9.40
2022-12-29T22:08:32.301Z,9.40
2022-12-29T22:11:52.659Z,9.30
2022-12-29T22:14:55.642Z,9.30
2022-12-29T22:17:59.323Z,9.30
2022-12-29T22:21:06.470Z,9.30
2022-12-29T22:24:09.975Z,9.20
2022-12-29T22:27:13.113Z,9.20
2022-12-29T22:30:16.559Z,9.20
2022-12-29T22:33:19.469Z,9.10
2022-12-29T22:36:24.208Z,9.10
2022-12-29T22:39:27.143Z,9.10
2022-12-29T22:42:30.139Z,9.10
2022-12-29T22:45:33.151Z,9.00
2022-12-29T22:48:36.949Z,9.00
2022-12-29T22:51:41.279Z,8.90
2022-12-29T22:54:44.272Z,8.80
2022-12-29T22:57:47.817Z,8.80
2022-12-29T23:00:50.764Z,8.70
2022-12-29T23:04:05.453Z,8.70
2022-12-29T23:07:17.997Z,8.70
2022-12-29T23:10:20.915Z,8.70
2022-12-29T23:13:23.920Z,8.80
2022-12-29T23:16:27.257Z,8.80
2022-12-29T23:19:30.337Z,8.80
2022-12-29T23:22:34.739Z,8.80
2022-12-29T23:25:38.177Z,8.80
2022-12-29T23:28:42.480Z,8.80
2022-12-29T23:31:46.336Z,8.90
2022-12-29T23:34:49.314Z,8.90
2022-12-29T23:37:53.662Z,8.90
2022-12-29T23:40:56.813Z,8.90
2022-12-29T23:43:59.790Z,8.90
2022-12-29T23:47:02.801Z,9.00
2022-12-29T23:50:06.942Z,9.00
2022-12-29T23:53:12.072Z,9.00
2022-12-29T23:56:16.935Z,8.90
2022-12-29T23:59:19.987Z,9.00
